Time;durP1;ratioP1;P1;durP2;ratioP2;P2;SDS_P1;SDS_P2;PMS_P1;PMS_P2;Temp;Humidity;BMP_temperature;BMP_pressure;BME280_temperature;BME280_humidity;BME280_pressure;Samples;Min_cycle;Max_cycle;Signal;HPM_P1;HPM_P2
2023/08/16 00:01:46;;;;;;;8.07;7.28;;;22.60;99.90;;;;;;5017135;28;20048;-44
2023/08/16 00:04:14;;;;;;;11.25;8.07;;;22.60;99.90;;;;;;5020065;28;20048;-47
2023/08/16 00:06:42;;;;;;;11.63;8.30;;;22.50;99.90;;;;;;5025191;28;20509;-43
2023/08/16 00:09:10;;;;;;;11.10;8.13;;;22.50;99.90;;;;;;5020816;28;20127;-46
2023/08/16 00:11:37;;;;;;;11.98;8.80;;;22.50;99.90;;;;;;5020752;28;20092;-45
2023/08/16 00:14:04;;;;;;;13.32;8.90;;;22.40;99.90;;;;;;5023464;28;20041;-48
2023/08/16 00:16:32;;;;;;;11.07;8.27;;;22.40;99.90;;;;;;5021888;28;20111;-45
2023/08/16 00:18:59;;;;;;;12.23;8.82;;;22.40;99.90;;;;;;5017964;28;20145;-45
2023/08/16 00:21:27;;;;;;;12.48;8.95;;;22.40;99.90;;;;;;5030595;28;20399;-46
2023/08/16 00:23:54;;;;;;;12.15;9.20;;;22.40;99.90;;;;;;5023536;28;20050;-43
2023/08/16 00:26:21;;;;;;;13.35;9.55;;;22.30;99.90;;;;;;5019253;28;20045;-43
2023/08/16 00:28:49;;;;;;;12.77;8.68;;;22.30;99.90;;;;;;5019278;28;20729;-44
2023/08/16 00:31:19;;;;;;;11.05;9.23;;;22.20;99.90;;;;;;5019656;28;20131;-43
2023/08/16 00:33:46;;;;;;;13.23;9.23;;;22.20;99.90;;;;;;5021323;28;20149;-43
2023/08/16 00:36:13;;;;;;;14.95;9.93;;;22.10;99.90;;;;;;5020310;28;20038;-47
2023/08/16 00:38:44;;;;;;;13.30;9.38;;;22.10;99.90;;;;;;5014924;28;20052;-49
2023/08/16 00:41:12;;;;;;;14.55;9.00;;;22.10;99.90;;;;;;5022803;28;20068;-43
2023/08/16 00:43:40;;;;;;;12.05;8.60;;;22.10;99.90;;;;;;5016221;28;20054;-43
2023/08/16 00:46:13;;;;;;;13.60;8.93;;;22.10;99.90;;;;;;5027653;28;20049;-42
2023/08/16 00:48:43;;;;;;;10.40;8.50;;;22.00;99.90;;;;;;5017320;28;20046;-45
2023/08/16 00:51:11;;;;;;;10.38;9.27;;;22.00;99.90;;;;;;5019166;28;20132;-43
2023/08/16 00:53:39;;;;;;;18.75;9.75;;;22.00;99.90;;;;;;5020369;28;20049;-43
2023/08/16 00:56:13;;;;;;;15.45;10.23;;;22.00;99.90;;;;;;5017379;28;20491;-41
2023/08/16 00:58:42;;;;;;;12.70;8.95;;;22.00;99.90;;;;;;5019923;28;20099;-40
2023/08/16 01:01:10;;;;;;;11.98;8.82;;;21.90;99.90;;;;;;5016574;28;20053;-45
2023/08/16 01:03:37;;;;;;;13.30;10.13;;;21.90;99.90;;;;;;5029030;28;20049;-43
2023/08/16 01:06:05;;;;;;;13.15;8.98;;;21.90;99.90;;;;;;5027885;28;20053;-42
2023/08/16 01:08:33;;;;;;;13.77;9.20;;;21.80;99.90;;;;;;5023047;28;20057;-44
2023/08/16 01:11:07;;;;;;;11.70;9.65;;;21.80;99.90;;;;;;5028174;28;20049;-44
2023/08/16 01:13:58;;;;;;;13.10;9.35;;;21.80;99.90;;;;;;5026783;28;20100;-48
2023/08/16 01:16:28;;;;;;;12.13;9.60;;;21.80;99.90;;;;;;5020067;28;20056;-46
2023/08/16 01:18:57;;;;;;;12.07;9.40;;;21.80;99.90;;;;;;5017162;28;20042;-42
2023/08/16 01:21:27;;;;;;;11.93;9.05;;;21.80;99.90;;;;;;5022217;28;20050;-43
2023/08/16 01:24:23;;;;;;;14.48;9.80;;;21.70;99.90;;;;;;5025397;28;20082;-42
2023/08/16 01:26:53;;;;;;;12.30;9.85;;;21.70;99.90;;;;;;5016203;28;20050;-46
2023/08/16 01:29:22;;;;;;;13.40;10.73;;;21.70;99.90;;;;;;5025430;28;20514;-44
2023/08/16 01:31:49;;;;;;;12.90;10.73;;;21.60;99.90;;;;;;5021886;28;20045;-45
2023/08/16 01:34:17;;;;;;;19.05;11.50;;;21.60;99.90;;;;;;5015796;28;20073;-44
2023/08/16 01:36:44;;;;;;;14.23;10.93;;;21.50;99.90;;;;;;5021678;28;20060;-42
2023/08/16 01:39:12;;;;;;;13.00;11.65;;;21.50;99.90;;;;;;5027916;28;20049;-45
2023/08/16 01:41:45;;;;;;;12.20;10.90;;;21.40;99.90;;;;;;5027965;28;20511;-46
2023/08/16 01:44:13;;;;;;;12.43;10.73;;;21.40;99.90;;;;;;5027376;28;20112;-42
2023/08/16 01:46:43;;;;;;;17.15;11.82;;;21.30;99.90;;;;;;5030018;28;20162;-43
2023/08/16 01:49:13;;;;;;;13.65;11.73;;;21.30;99.90;;;;;;5027971;28;20139;-44
2023/08/16 01:51:40;;;;;;;14.55;10.23;;;21.20;99.90;;;;;;5023391;28;20493;-42
2023/08/16 01:54:11;;;;;;;18.40;10.60;;;21.20;99.90;;;;;;5027759;28;20065;-41
2023/08/16 01:56:38;;;;;;;14.20;9.98;;;21.20;99.90;;;;;;5026637;28;20041;-43
2023/08/16 01:59:05;;;;;;;14.43;11.18;;;21.20;99.90;;;;;;5025440;28;20509;-49
2023/08/16 02:01:33;;;;;;;12.13;10.48;;;21.20;99.90;;;;;;5026519;28;20064;-40
2023/08/16 02:04:00;;;;;;;13.80;10.77;;;21.10;99.90;;;;;;5040985;28;20386;-42
2023/08/16 02:06:30;;;;;;;13.45;10.32;;;21.10;99.90;;;;;;5020700;28;20049;-42
2023/08/16 02:08:58;;;;;;;14.20;10.70;;;21.10;99.90;;;;;;5025943;28;20324;-41
2023/08/16 02:11:25;;;;;;;14.75;11.77;;;21.10;99.90;;;;;;5025064;28;20421;-46
2023/08/16 02:13:52;;;;;;;12.85;11.05;;;21.10;99.90;;;;;;5019478;28;20060;-48
2023/08/16 02:16:25;;;;;;;13.95;11.40;;;21.10;99.90;;;;;;5023775;28;20041;-46
2023/08/16 02:18:52;;;;;;;13.13;11.35;;;21.00;99.90;;;;;;5024048;28;20042;-42
2023/08/16 02:21:19;;;;;;;13.80;12.30;;;21.00;99.90;;;;;;5026781;28;20357;-51
2023/08/16 02:23:47;;;;;;;16.10;11.85;;;21.00;99.90;;;;;;5027436;28;20548;-44
2023/08/16 02:26:15;;;;;;;18.17;12.73;;;20.90;99.90;;;;;;5027199;28;20382;-46
2023/08/16 02:28:44;;;;;;;14.40;11.85;;;20.90;99.90;;;;;;5026542;28;20073;-42
2023/08/16 02:31:11;;;;;;;15.30;11.63;;;20.80;99.90;;;;;;5021381;28;20049;-46
2023/08/16 02:33:39;;;;;;;17.88;12.00;;;20.80;99.90;;;;;;5022002;28;20422;-41
2023/08/16 02:36:07;;;;;;;17.00;11.98;;;20.80;99.90;;;;;;5025615;28;20041;-42
2023/08/16 02:38:34;;;;;;;17.50;12.23;;;20.70;99.90;;;;;;5025388;28;20061;-44
2023/08/16 02:41:01;;;;;;;18.50;12.57;;;20.70;99.90;;;;;;5024161;28;20037;-48
2023/08/16 02:43:29;;;;;;;16.13;12.85;;;20.60;99.90;;;;;;5023130;28;20169;-45
2023/08/16 02:45:57;;;;;;;17.90;13.50;;;20.50;99.90;;;;;;5023961;28;20425;-42
2023/08/16 02:48:25;;;;;;;15.60;12.02;;;20.50;99.90;;;;;;5021204;28;20466;-45
2023/08/16 02:50:53;;;;;;;18.20;13.98;;;20.40;99.90;;;;;;5036229;28;20111;-46
2023/08/16 02:53:20;;;;;;;13.65;11.65;;;20.40;99.90;;;;;;5029214;28;20103;-41
2023/08/16 02:55:48;;;;;;;15.95;11.65;;;20.40;99.90;;;;;;5026929;28;20104;-45
2023/08/16 02:58:15;;;;;;;16.50;12.40;;;20.40;99.90;;;;;;5024697;28;20049;-45
2023/08/16 03:00:42;;;;;;;15.27;11.82;;;20.30;99.90;;;;;;5025083;28;20168;-42
2023/08/16 03:03:10;;;;;;;12.77;11.30;;;20.30;99.90;;;;;;5026958;28;20107;-48
2023/08/16 03:05:37;;;;;;;15.05;12.20;;;20.30;99.90;;;;;;5026531;28;20057;-45
2023/08/16 03:08:05;;;;;;;14.48;10.90;;;20.30;99.90;;;;;;5026362;28;20051;-43
2023/08/16 03:10:33;;;;;;;13.30;10.73;;;20.30;99.90;;;;;;5026396;28;20431;-46
2023/08/16 03:13:03;;;;;;;16.55;11.45;;;20.30;99.90;;;;;;5027461;28;20060;-44
2023/08/16 03:15:30;;;;;;;12.30;10.98;;;20.30;99.90;;;;;;5024226;28;20042;-47
2023/08/16 03:17:58;;;;;;;17.65;12.23;;;20.30;99.90;;;;;;5025742;28;20038;-43
2023/08/16 03:20:26;;;;;;;14.95;11.80;;;20.30;99.90;;;;;;5025310;28;20115;-44
2023/08/16 03:22:54;;;;;;;17.35;13.27;;;20.30;99.90;;;;;;5023102;28;20156;-45
2023/08/16 03:25:21;;;;;;;14.63;12.07;;;20.20;99.90;;;;;;5027849;28;20045;-44
2023/08/16 03:27:48;;;;;;;14.05;12.55;;;20.10;99.90;;;;;;5027002;28;20337;-49
2023/08/16 03:30:16;;;;;;;15.73;12.25;;;20.10;99.90;;;;;;5024161;28;20036;-41
2023/08/16 03:32:43;;;;;;;13.60;11.57;;;20.10;99.90;;;;;;5021601;28;20180;-44
2023/08/16 03:35:12;;;;;;;16.98;11.32;;;20.00;99.90;;;;;;5030293;28;20131;-44
2023/08/16 03:37:40;;;;;;;16.27;12.55;;;20.00;99.90;;;;;;5027424;28;20057;-43
2023/08/16 03:40:09;;;;;;;15.20;12.23;;;20.00;99.90;;;;;;5024774;28;20593;-50
2023/08/16 03:42:37;;;;;;;13.07;11.32;;;20.00;99.90;;;;;;5033532;28;20155;-44
2023/08/16 03:45:05;;;;;;;14.38;10.98;;;20.00;99.90;;;;;;5031189;28;20492;-45
2023/08/16 03:47:34;;;;;;;13.25;11.43;;;20.10;99.90;;;;;;5025895;28;20498;-43
2023/08/16 03:50:01;;;;;;;13.27;11.88;;;20.10;99.90;;;;;;5025084;28;20048;-43
2023/08/16 03:52:29;;;;;;;13.52;11.60;;;20.10;99.90;;;;;;5020892;28;20049;-43
2023/08/16 03:54:56;;;;;;;17.42;11.95;;;20.00;99.90;;;;;;5029659;28;20041;-45
2023/08/16 03:57:23;;;;;;;16.65;11.95;;;20.00;99.90;;;;;;5022823;28;20045;-47
2023/08/16 03:59:54;;;;;;;14.35;10.70;;;20.00;99.90;;;;;;5028508;28;20044;-45
2023/08/16 04:02:22;;;;;;;14.10;11.10;;;20.00;99.90;;;;;;5029712;28;20518;-44
2023/08/16 04:04:53;;;;;;;13.88;11.55;;;20.00;99.90;;;;;;5027198;28;20034;-47
2023/08/16 04:07:21;;;;;;;15.38;12.40;;;20.00;99.90;;;;;;5029121;28;20069;-45
2023/08/16 04:09:49;;;;;;;16.45;13.70;;;19.90;99.90;;;;;;5029388;28;20052;-43
2023/08/16 04:12:16;;;;;;;15.55;11.73;;;20.00;99.90;;;;;;5031770;28;20073;-45
2023/08/16 04:14:44;;;;;;;15.98;11.90;;;19.90;99.90;;;;;;5026222;28;20049;-44
2023/08/16 04:17:11;;;;;;;18.23;12.73;;;20.00;99.90;;;;;;5027280;28;20124;-45
2023/08/16 04:19:38;;;;;;;15.15;11.50;;;20.00;99.90;;;;;;5027425;28;20510;-45
2023/08/16 04:22:06;;;;;;;13.45;11.45;;;20.00;99.90;;;;;;5025503;28;20048;-44
2023/08/16 04:24:34;;;;;;;13.25;11.70;;;20.00;99.90;;;;;;5027743;28;20148;-43
2023/08/16 04:27:02;;;;;;;15.02;11.70;;;20.00;99.90;;;;;;5025133;28;20254;-46
2023/08/16 04:29:29;;;;;;;17.88;12.50;;;20.00;99.90;;;;;;5028140;28;20400;-43
2023/08/16 04:31:57;;;;;;;19.40;15.55;;;20.00;99.90;;;;;;5032058;28;20042;-47
2023/08/16 04:34:24;;;;;;;16.52;13.55;;;20.10;99.90;;;;;;5033431;28;20050;-43
2023/08/16 04:36:51;;;;;;;14.65;11.90;;;20.10;99.90;;;;;;5023678;28;20555;-46
2023/08/16 04:39:20;;;;;;;15.07;10.93;;;20.20;99.90;;;;;;5022294;28;20128;-44
2023/08/16 04:41:48;;;;;;;19.77;13.88;;;20.30;99.90;;;;;;5024653;28;20046;-47
2023/08/16 04:44:16;;;;;;;18.17;13.50;;;20.30;99.90;;;;;;5025374;28;20140;-44
2023/08/16 04:46:44;;;;;;;17.80;14.13;;;20.30;99.90;;;;;;5030530;28;20077;-43
2023/08/16 04:49:11;;;;;;;19.23;15.63;;;20.40;99.90;;;;;;5029759;28;20107;-49
2023/08/16 04:51:38;;;;;;;14.52;13.00;;;20.40;99.90;;;;;;5027711;28;20049;-44
2023/08/16 04:54:07;;;;;;;15.98;13.18;;;20.50;99.90;;;;;;5026210;28;20046;-44
2023/08/16 04:56:35;;;;;;;15.93;13.88;;;20.60;99.90;;;;;;5026734;28;20051;-43
2023/08/16 04:59:02;;;;;;;17.55;14.38;;;20.60;99.90;;;;;;5025499;28;20404;-43
2023/08/16 05:01:29;;;;;;;18.52;14.15;;;20.70;99.90;;;;;;5025909;28;20480;-47
2023/08/16 05:03:59;;;;;;;17.13;13.77;;;20.70;99.90;;;;;;5026046;28;20048;-46
2023/08/16 05:06:27;;;;;;;17.65;14.25;;;20.80;99.90;;;;;;5023333;28;20049;-48
2023/08/16 05:08:54;;;;;;;15.40;12.75;;;20.90;99.90;;;;;;5022787;28;20454;-43
2023/08/16 05:11:22;;;;;;;14.60;12.13;;;20.90;99.90;;;;;;5026508;28;20069;-44
2023/08/16 05:13:50;;;;;;;16.52;13.75;;;21.00;99.90;;;;;;5023621;28;20518;-44
2023/08/16 05:16:17;;;;;;;17.33;15.40;;;21.00;99.90;;;;;;5023898;28;20461;-46
2023/08/16 05:18:47;;;;;;;17.15;14.15;;;21.00;99.90;;;;;;5017134;28;20059;-43
2023/08/16 05:21:16;;;;;;;17.85;15.27;;;21.10;99.90;;;;;;5021158;28;20049;-42
2023/08/16 05:23:43;;;;;;;19.33;15.70;;;21.00;99.90;;;;;;5019632;28;20091;-43
2023/08/16 05:26:10;;;;;;;21.45;16.27;;;21.00;99.90;;;;;;5026016;28;20073;-48
2023/08/16 05:28:37;;;;;;;16.73;14.43;;;21.00;99.90;;;;;;5015824;28;20119;-44
2023/08/16 05:31:09;;;;;;;17.10;14.38;;;21.10;99.90;;;;;;5027034;28;20057;-47
2023/08/16 05:33:37;;;;;;;21.05;16.05;;;21.10;99.90;;;;;;5018032;28;20080;-47
2023/08/16 05:36:06;;;;;;;18.50;14.52;;;21.20;99.90;;;;;;5016888;28;20057;-45
2023/08/16 05:38:34;;;;;;;18.20;15.70;;;21.30;99.90;;;;;;5020792;28;20120;-43
2023/08/16 05:41:04;;;;;;;15.32;11.57;;;21.40;99.90;;;;;;5021931;28;20481;-47
2023/08/16 05:43:32;;;;;;;22.27;15.25;;;21.40;99.90;;;;;;5022829;28;20049;-46
2023/08/16 05:45:59;;;;;;;19.13;15.77;;;21.40;99.90;;;;;;5023465;28;20217;-45
2023/08/16 05:48:27;;;;;;;22.02;14.30;;;21.50;99.90;;;;;;5023654;28;20052;-47
2023/08/16 05:50:54;;;;;;;17.75;13.82;;;21.60;99.90;;;;;;5019227;28;20049;-42
2023/08/16 05:53:22;;;;;;;18.23;14.75;;;21.70;99.90;;;;;;5020809;28;20046;-45
2023/08/16 05:55:49;;;;;;;18.30;15.60;;;21.70;99.90;;;;;;5019183;28;20549;-46
2023/08/16 05:58:16;;;;;;;18.33;14.57;;;21.80;99.90;;;;;;5022476;28;20061;-44
2023/08/16 06:00:45;;;;;;;15.85;14.00;;;21.80;99.90;;;;;;5024753;28;20095;-46
2023/08/16 06:03:14;;;;;;;22.10;15.05;;;21.90;99.90;;;;;;5025016;28;20497;-45
2023/08/16 06:05:41;;;;;;;19.65;16.00;;;21.90;99.90;;;;;;5021476;28;20049;-48
2023/08/16 06:08:09;;;;;;;20.77;16.35;;;22.00;99.90;;;;;;5024944;28;20049;-40
2023/08/16 06:10:36;;;;;;;17.17;14.55;;;22.00;99.90;;;;;;5020312;28;20049;-44
2023/08/16 06:13:03;;;;;;;20.40;16.80;;;22.00;99.90;;;;;;5025374;28;20307;-49
2023/08/16 06:15:31;;;;;;;19.48;15.40;;;22.00;99.90;;;;;;5027397;28;20049;-44
2023/08/16 06:17:58;;;;;;;17.92;15.27;;;22.10;99.90;;;;;;5022561;28;20073;-47
2023/08/16 06:20:25;;;;;;;20.30;14.50;;;22.10;99.90;;;;;;5017962;28;20139;-43
2023/08/16 06:22:53;;;;;;;18.95;14.93;;;22.20;99.90;;;;;;5019072;28;20069;-42
2023/08/16 06:25:20;;;;;;;21.73;17.02;;;22.30;99.90;;;;;;5020611;28;20498;-48
2023/08/16 06:27:48;;;;;;;23.75;17.95;;;22.30;99.90;;;;;;5022432;28;20139;-44
2023/08/16 06:30:16;;;;;;;22.27;16.10;;;22.20;99.90;;;;;;5026987;28;20052;-47
2023/08/16 06:32:44;;;;;;;20.05;17.30;;;22.10;99.90;;;;;;5020308;28;20461;-41
2023/08/16 06:35:11;;;;;;;19.98;17.65;;;22.10;99.90;;;;;;5025243;28;20675;-44
2023/08/16 06:37:39;;;;;;;19.73;17.00;;;22.10;99.90;;;;;;5017132;28;20528;-44
2023/08/16 06:40:08;;;;;;;23.88;18.67;;;22.20;99.90;;;;;;5019999;28;20552;-50
2023/08/16 06:42:36;;;;;;;22.33;18.48;;;22.30;99.90;;;;;;5022094;28;20057;-45
2023/08/16 06:45:03;;;;;;;23.73;19.35;;;22.30;99.90;;;;;;5018244;28;20475;-46
2023/08/16 06:47:31;;;;;;;23.50;18.10;;;22.40;99.90;;;;;;5020539;28;20045;-50
2023/08/16 06:49:58;;;;;;;21.02;17.15;;;22.50;99.90;;;;;;5017734;28;20123;-44
2023/08/16 06:52:25;;;;;;;19.98;15.80;;;22.50;99.90;;;;;;5024682;28;20075;-49
2023/08/16 06:54:53;;;;;;;21.75;17.35;;;22.60;99.90;;;;;;5018839;28;20046;-48
2023/08/16 06:57:20;;;;;;;22.10;16.80;;;22.60;99.90;;;;;;5023155;28;20471;-47
2023/08/16 06:59:48;;;;;;;20.90;17.83;;;22.70;99.90;;;;;;5014127;28;20083;-48
2023/08/16 07:02:15;;;;;;;24.13;18.58;;;22.80;99.90;;;;;;5020426;28;20068;-48
2023/08/16 07:04:43;;;;;;;29.23;17.40;;;23.00;99.90;;;;;;5018314;28;20071;-48
2023/08/16 07:07:10;;;;;;;22.30;16.08;;;23.10;99.90;;;;;;5017155;28;20436;-49
2023/08/16 07:09:38;;;;;;;21.33;15.45;;;23.20;99.90;;;;;;5022161;28;20120;-43
2023/08/16 07:12:06;;;;;;;17.42;14.90;;;23.20;99.90;;;;;;5019224;28;20341;-44
2023/08/16 07:14:33;;;;;;;19.55;17.08;;;23.30;99.90;;;;;;5024349;28;20358;-45
2023/08/16 07:17:02;;;;;;;20.38;15.88;;;23.30;99.90;;;;;;5016877;28;20044;-43
2023/08/16 07:19:29;;;;;;;15.77;12.93;;;23.40;99.90;;;;;;5027120;28;20045;-46
2023/08/16 07:21:56;;;;;;;14.90;12.02;;;23.50;99.90;;;;;;5027167;28;20208;-48
2023/08/16 07:24:23;;;;;;;18.50;13.70;;;23.60;99.90;;;;;;5025926;28;20096;-42
2023/08/16 07:26:52;;;;;;;12.73;10.95;;;23.80;99.90;;;;;;5029472;28;20465;-44
2023/08/16 07:29:20;;;;;;;12.77;10.15;;;23.90;99.90;;;;;;5028616;28;20470;-43
2023/08/16 07:31:48;;;;;;;11.88;8.60;;;24.10;99.90;;;;;;5028404;28;20519;-42
2023/08/16 07:34:15;;;;;;;14.80;9.23;;;24.20;99.90;;;;;;5023356;28;20414;-45
2023/08/16 07:36:43;;;;;;;12.15;8.52;;;24.40;99.90;;;;;;5024582;28;20129;-46
2023/08/16 07:39:11;;;;;;;15.07;8.98;;;24.40;99.90;;;;;;5021556;28;20041;-42
2023/08/16 07:41:38;;;;;;;8.88;6.95;;;24.60;99.90;;;;;;5019271;28;20041;-44
2023/08/16 07:44:06;;;;;;;11.25;8.20;;;24.70;99.90;;;;;;5026956;28;20076;-45
2023/08/16 07:46:33;;;;;;;13.43;9.35;;;24.90;99.90;;;;;;5026479;28;20042;-42
2023/08/16 07:49:00;;;;;;;9.50;8.48;;;25.00;99.90;;;;;;5025985;28;20064;-48
2023/08/16 07:51:28;;;;;;;11.13;8.57;;;25.10;99.90;;;;;;5026499;28;20121;-44
2023/08/16 07:53:55;;;;;;;10.93;7.80;;;25.10;99.90;;;;;;5025373;28;20413;-44
2023/08/16 07:56:22;;;;;;;13.40;9.30;;;25.20;99.90;;;;;;5028437;28;20053;-47
2023/08/16 07:58:50;;;;;;;11.88;8.60;;;25.30;99.90;;;;;;5029080;28;20132;-49
2023/08/16 08:01:17;;;;;;;14.90;9.00;;;25.30;99.90;;;;;;5028622;28;20087;-45
2023/08/16 08:03:46;;;;;;;10.35;7.97;;;25.40;99.90;;;;;;5026257;28;20263;-44
2023/08/16 08:06:13;;;;;;;11.48;8.52;;;25.50;99.90;;;;;;5027353;28;20045;-46
2023/08/16 08:08:41;;;;;;;11.77;8.00;;;25.60;99.90;;;;;;5027975;28;20137;-46
2023/08/16 08:11:08;;;;;;;13.15;8.90;;;25.80;99.90;;;;;;5029957;28;20064;-46
2023/08/16 08:13:37;;;;;;;11.52;8.30;;;26.00;99.90;;;;;;5026137;28;20049;-49
2023/08/16 08:16:04;;;;;;;18.25;8.40;;;26.00;99.90;;;;;;5018730;28;20050;-50
2023/08/16 08:18:32;;;;;;;10.07;8.15;;;26.10;99.90;;;;;;5028245;28;20060;-48
2023/08/16 08:20:59;;;;;;;11.75;7.60;;;26.20;99.90;;;;;;5027933;28;20046;-47
2023/08/16 08:23:26;;;;;;;10.50;7.30;;;26.30;99.90;;;;;;5028851;28;20057;-51
2023/08/16 08:25:54;;;;;;;8.13;7.30;;;26.50;99.90;;;;;;5030063;28;20052;-53
2023/08/16 08:28:22;;;;;;;10.68;7.35;;;26.60;99.90;;;;;;5029610;28;20129;-47
2023/08/16 08:30:49;;;;;;;7.78;6.65;;;26.70;99.90;;;;;;5027513;28;20058;-51
2023/08/16 08:33:17;;;;;;;9.18;7.25;;;26.90;99.90;;;;;;5028552;28;20398;-47
2023/08/16 08:35:44;;;;;;;9.32;8.20;;;26.90;99.90;;;;;;5031324;28;20127;-50
2023/08/16 08:38:11;;;;;;;7.88;7.10;;;26.90;99.90;;;;;;5028022;28;20045;-44
2023/08/16 08:40:39;;;;;;;8.63;6.93;;;27.00;99.90;;;;;;5025471;28;20045;-45
2023/08/16 08:43:07;;;;;;;9.23;6.50;;;27.10;99.90;;;;;;5028461;28;20529;-51
2023/08/16 08:45:35;;;;;;;9.05;7.25;;;27.30;99.90;;;;;;5028173;28;20502;-47
2023/08/16 08:48:04;;;;;;;10.52;7.25;;;27.30;99.90;;;;;;5028621;28;20055;-45
2023/08/16 08:50:32;;;;;;;7.60;6.80;;;27.40;99.90;;;;;;5022251;28;20049;-47
2023/08/16 08:53:01;;;;;;;8.32;6.50;;;27.40;99.90;;;;;;5029587;28;20449;-48
2023/08/16 08:55:33;;;;;;;9.68;7.30;;;27.60;99.90;;;;;;5027552;28;20092;-45
2023/08/16 08:58:04;;;;;;;9.10;7.55;;;27.70;99.90;;;;;;5023003;28;20052;-46
2023/08/16 09:00:37;;;;;;;8.27;6.55;;;27.80;99.90;;;;;;5025304;28;20635;-41
2023/08/16 09:03:07;;;;;;;8.57;6.55;;;27.70;99.90;;;;;;5026467;28;20053;-46
2023/08/16 09:05:38;;;;;;;8.15;6.75;;;27.70;99.90;;;;;;5026360;28;20506;-47
2023/08/16 09:08:06;;;;;;;8.13;6.90;;;27.80;99.90;;;;;;5025627;28;20045;-50
2023/08/16 09:10:37;;;;;;;8.02;6.43;;;28.10;99.90;;;;;;5028844;28;20057;-50
2023/08/16 09:13:06;;;;;;;8.35;7.28;;;28.20;99.90;;;;;;5028725;28;20073;-46
2023/08/16 09:15:33;;;;;;;8.35;6.45;;;28.40;99.90;;;;;;5023573;28;20053;-49
2023/08/16 09:18:16;;;;;;;7.60;6.80;;;28.40;99.90;;;;;;5027422;28;20046;-47
2023/08/16 09:20:44;;;;;;;8.45;7.60;;;28.50;99.90;;;;;;5025823;28;20057;-51
2023/08/16 09:23:15;;;;;;;7.18;6.47;;;28.70;99.90;;;;;;5029689;28;20037;-47
2023/08/16 09:25:44;;;;;;;7.60;6.63;;;29.00;99.90;;;;;;5028385;28;20050;-44
2023/08/16 09:28:13;;;;;;;8.00;7.20;;;29.10;99.90;;;;;;5026760;28;20761;-45
2023/08/16 09:30:41;;;;;;;8.02;7.28;;;29.30;99.90;;;;;;5025083;28;20458;-51
2023/08/16 09:33:12;;;;;;;9.40;7.22;;;29.60;99.90;;;;;;5027033;28;20041;-47
2023/08/16 09:35:48;;;;;;;;;;;29.90;99.90;;;;;;5027686;28;20060;-48
2023/08/16 09:38:15;;;;;;;7.93;5.80;;;30.30;99.90;;;;;;5026850;28;19921;-47
2023/08/16 09:40:51;;;;;;;8.13;6.80;;;30.80;99.90;;;;;;5028168;28;20053;-50
2023/08/16 09:43:20;;;;;;;11.00;7.63;;;31.00;99.90;;;;;;5028489;28;20482;-46
2023/08/16 09:45:49;;;;;;;7.00;6.40;;;31.20;99.90;;;;;;5020128;28;20096;-43
2023/08/16 09:48:19;;;;;;;9.65;6.60;;;31.60;99.90;;;;;;5031953;28;20129;-50
2023/08/16 09:50:47;;;;;;;7.07;6.45;;;31.80;99.90;;;;;;5025316;28;20087;-47
2023/08/16 09:53:35;;;;;;;7.15;6.53;;;31.80;99.90;;;;;;5026332;28;20053;-46
2023/08/16 09:56:06;;;;;;;7.40;6.70;;;31.70;99.90;;;;;;5028233;28;20061;-45
2023/08/16 09:58:36;;;;;;;7.60;6.80;;;32.00;99.90;;;;;;5024337;28;20042;-49
2023/08/16 10:01:03;;;;;;;7.68;6.82;;;32.30;99.90;;;;;;5018884;28;20128;-49
2023/08/16 10:03:54;;;;;;;7.05;6.35;;;32.60;99.90;;;;;;5022066;28;20045;-53
2023/08/16 10:06:31;;;;;;;7.32;6.50;;;32.90;99.90;;;;;;5020571;28;20457;-48
2023/08/16 10:09:09;;;;;;;8.60;6.95;;;32.80;99.90;;;;;;5022397;28;20451;-50
2023/08/16 10:11:37;;;;;;;7.35;6.65;;;32.90;99.90;;;;;;5020327;28;20048;-49
2023/08/16 10:14:09;;;;;;;7.50;6.80;;;33.50;99.90;;;;;;5021469;28;20119;-45
2023/08/16 10:16:37;;;;;;;8.35;7.13;;;33.50;99.90;;;;;;5016409;28;20057;-45
2023/08/16 10:19:11;;;;;;;8.15;7.35;;;33.60;99.90;;;;;;5016297;28;20046;-46
2023/08/16 10:21:45;;;;;;;8.07;7.28;;;33.90;99.90;;;;;;5025340;28;20042;-44
2023/08/16 10:24:15;;;;;;;8.93;7.18;;;34.00;99.90;;;;;;5020025;28;20037;-45
2023/08/16 10:27:03;;;;;;;10.38;8.02;;;34.00;99.90;;;;;;5011896;28;20042;-47
2023/08/16 10:29:40;;;;;;;8.65;7.80;;;34.30;99.90;;;;;;5027804;22;20073;-47
2023/08/16 10:32:12;;;;;;;8.55;7.45;;;34.30;99.90;;;;;;5002952;28;20046;-47
2023/08/16 10:34:40;;;;;;;7.88;7.18;;;34.30;99.90;;;;;;5005689;28;20147;-43
2023/08/16 10:37:08;;;;;;;8.65;7.80;;;34.40;99.90;;;;;;5004684;28;20041;-44
2023/08/16 10:39:35;;;;;;;8.98;7.82;;;34.20;99.90;;;;;;5007192;28;20065;-42
2023/08/16 10:42:27;;;;;;;7.95;7.25;;;34.10;99.90;;;;;;5078434;22;20088;31
2023/08/16 10:44:55;;;;;;;10.32;7.93;;;34.20;99.90;;;;;;4811874;29;20065;-40
2023/08/16 10:47:29;;;;;;;9.05;7.70;;;34.40;99.90;;;;;;4818008;29;20439;-41
2023/08/16 10:50:00;;;;;;;8.10;7.18;;;34.50;99.90;;;;;;4816002;29;20058;-43
2023/08/16 10:52:30;;;;;;;8.38;7.28;;;34.50;99.90;;;;;;4822849;29;20053;-40
2023/08/16 10:54:59;;;;;;;8.10;7.35;;;34.50;99.90;;;;;;4837379;29;20337;-45
2023/08/16 10:57:27;;;;;;;8.98;7.32;;;34.40;99.90;;;;;;4837677;29;20053;-43
2023/08/16 11:00:09;;;;;;;9.32;7.55;;;34.40;99.90;;;;;;4836298;29;20128;-44
2023/08/16 11:02:37;;;;;;;9.40;8.27;;;34.50;99.90;;;;;;4838677;29;20073;-46
2023/08/16 11:05:13;;;;;;;9.20;8.05;;;34.70;99.90;;;;;;4840997;29;20044;-42
2023/08/16 11:07:44;;;;;;;8.10;7.30;;;34.90;99.90;;;;;;4838591;29;20054;-44
2023/08/16 11:10:12;;;;;;;8.77;7.97;;;35.30;99.90;;;;;;4839471;29;20046;-44
2023/08/16 11:12:39;;;;;;;8.20;7.47;;;35.70;99.90;;;;;;4839988;29;20064;-45
2023/08/16 11:15:08;;;;;;;7.88;7.05;;;35.90;99.90;;;;;;4839598;29;20518;-43
2023/08/16 11:17:42;;;;;;;8.30;7.00;;;35.40;99.60;;;;;;4838985;29;20555;-44
2023/08/16 11:20:18;;;;;;;12.02;8.45;;;35.70;99.50;;;;;;4841654;29;20046;-43
2023/08/16 11:22:47;;;;;;;8.52;7.82;;;35.50;99.30;;;;;;4845157;29;20411;-44
2023/08/16 11:25:14;;;;;;;10.90;8.48;;;35.30;99.90;;;;;;4843316;29;20151;-46
2023/08/16 11:27:41;;;;;;;9.50;8.70;;;35.20;99.90;;;;;;4839844;29;20095;-42
2023/08/16 11:30:09;;;;;;;9.23;8.32;;;35.00;99.90;;;;;;4840677;29;20060;-42
2023/08/16 11:32:38;;;;;;;9.40;8.50;;;34.60;99.60;;;;;;4844343;29;20115;-44
2023/08/16 11:35:11;;;;;;;10.05;9.15;;;34.20;99.90;;;;;;4837134;29;20508;-41
2023/08/16 11:37:43;;;;;;;9.35;8.55;;;34.00;99.90;;;;;;4840224;29;20050;-45
2023/08/16 11:40:10;;;;;;;10.63;8.85;;;33.80;99.90;;;;;;4840079;29;20523;-47
2023/08/16 11:42:37;;;;;;;12.02;9.38;;;33.60;99.90;;;;;;4840657;29;20054;-44
2023/08/16 11:45:20;;;;;;;11.10;8.85;;;33.40;99.90;;;;;;4840876;29;20198;-42
2023/08/16 11:47:54;;;;;;;9.90;8.75;;;33.20;99.90;;;;;;4840577;29;20086;-43
2023/08/16 11:50:25;;;;;;;11.25;8.82;;;32.70;99.90;;;;;;4840345;29;20046;-43
2023/08/16 11:53:00;;;;;;;9.90;9.00;;;32.50;99.90;;;;;;4842649;29;20519;-44
2023/08/16 11:55:29;;;;;;;9.80;8.82;;;32.50;99.90;;;;;;4840699;29;20062;-42
2023/08/16 11:58:05;;;;;;;10.52;8.90;;;32.50;99.90;;;;;;4840042;29;20061;-43
2023/08/16 12:00:33;;;;;;;9.32;8.30;;;32.60;99.90;;;;;;4837346;29;20126;-41
2023/08/16 12:03:06;;;;;;;9.45;8.52;;;32.70;99.90;;;;;;4840590;29;20045;-42
2023/08/16 12:05:38;;;;;;;10.80;8.80;;;32.50;99.90;;;;;;4837059;29;20073;-45
2023/08/16 12:08:08;;;;;;;8.98;8.18;;;32.10;99.90;;;;;;4838137;29;20549;-40
2023/08/16 12:10:35;;;;;;;9.13;8.20;;;31.80;99.90;;;;;;4841778;29;20052;-42
2023/08/16 12:13:14;;;;;;;9.68;8.35;;;31.70;99.90;;;;;;4841989;29;20162;-43
2023/08/16 12:15:42;;;;;;;8.48;7.68;;;32.00;99.90;;;;;;4842883;29;20061;-43
2023/08/16 12:18:10;;;;;;;8.50;7.70;;;31.90;99.90;;;;;;4845148;29;20127;-42
2023/08/16 12:20:38;;;;;;;8.45;7.65;;;32.00;99.90;;;;;;4841198;29;20134;-43
2023/08/16 12:23:05;;;;;;;8.98;8.05;;;31.50;99.90;;;;;;4840846;29;20149;-43
2023/08/16 12:25:33;;;;;;;15.00;8.43;;;31.30;99.90;;;;;;4839503;29;20111;-40
2023/08/16 12:28:01;;;;;;;9.35;8.13;;;31.80;99.90;;;;;;4838455;29;20050;-42
2023/08/16 12:30:29;;;;;;;10.38;8.07;;;32.50;99.90;;;;;;4838836;29;20064;-42
2023/08/16 12:32:56;;;;;;;12.63;8.48;;;33.10;99.90;;;;;;4839284;29;20053;-44
2023/08/16 12:35:24;;;;;;;8.15;7.45;;;33.90;99.90;;;;;;4839239;29;20504;-43
2023/08/16 12:37:51;;;;;;;8.07;7.38;;;33.80;99.90;;;;;;4837905;29;20054;-45
2023/08/16 12:40:26;;;;;;;8.48;7.72;;;33.50;99.90;;;;;;4838934;29;20132;-44
2023/08/16 12:42:55;;;;;;;8.50;7.70;;;33.70;99.90;;;;;;4839135;29;20050;-43
2023/08/16 12:45:23;;;;;;;7.53;6.80;;;33.20;99.90;;;;;;4840742;29;20050;-42